Time;durP1;ratioP1;P1;durP2;ratioP2;P2;SDS_P1;SDS_P2;PMS_P1;PMS_P2;Temp;Humidity;BMP_temperature;BMP_pressure;BME280_temperature;BME280_humidity;BME280_pressure;Samples;Min_cycle;Max_cycle;Signal;HPM_P1;HPM_P2
2022/11/21 00:00:49;;;;;;;31.17;18.05;;;7.60;99.90;;;;;;5079507;28;20036;-46
2022/11/21 00:03:15;;;;;;;32.40;20.58;;;7.60;99.90;;;;;;5079590;28;20406;-44
2022/11/21 00:05:43;;;;;;;27.33;17.88;;;7.50;99.90;;;;;;5079653;28;20035;-45
2022/11/21 00:08:10;;;;;;;32.40;19.30;;;7.50;99.90;;;;;;5065491;28;20024;-45
2022/11/21 00:10:37;;;;;;;29.60;18.92;;;7.50;99.90;;;;;;5084141;28;20111;-45
2022/11/21 00:13:03;;;;;;;31.02;19.25;;;7.60;99.90;;;;;;5057398;28;20064;-46
2022/11/21 00:15:29;;;;;;;30.88;17.55;;;7.60;99.90;;;;;;5084814;28;20044;-45
2022/11/21 00:17:55;;;;;;;33.55;19.95;;;7.50;99.90;;;;;;5095191;28;20043;-45
2022/11/21 00:20:21;;;;;;;33.03;20.00;;;7.60;99.90;;;;;;5080548;28;20028;-45
2022/11/21 00:22:48;;;;;;;33.42;19.50;;;7.70;99.90;;;;;;5084549;28;20032;-45
2022/11/21 00:25:14;;;;;;;31.42;18.75;;;7.50;99.90;;;;;;5083077;28;20746;-45
2022/11/21 00:27:40;;;;;;;32.70;18.60;;;7.60;99.90;;;;;;5083782;28;20387;-45
2022/11/21 00:30:12;;;;;;;31.55;18.60;;;7.60;99.90;;;;;;5064299;28;20044;-45
2022/11/21 00:32:38;;;;;;;;;;;7.70;99.90;;;;;;5038017;28;20094;-46
2022/11/21 00:35:05;;;;;;;30.15;18.40;;;7.70;99.90;;;;;;5057987;28;19909;-46
2022/11/21 00:37:32;;;;;;;29.08;17.75;;;7.50;99.90;;;;;;5058260;28;20507;-45
2022/11/21 00:39:57;;;;;;;32.90;18.10;;;7.50;99.90;;;;;;5060334;28;20095;-45
2022/11/21 00:42:23;;;;;;;30.50;18.85;;;7.50;99.90;;;;;;5029065;28;20064;-45
2022/11/21 00:44:49;;;;;;;28.70;17.38;;;7.30;99.90;;;;;;5061097;28;20553;-45
2022/11/21 00:47:14;;;;;;;32.25;18.63;;;7.30;99.90;;;;;;5020312;28;20055;-44
2022/11/21 00:49:40;;;;;;;34.95;20.83;;;7.30;99.90;;;;;;5038129;28;20036;-45
2022/11/21 00:52:06;;;;;;;32.83;19.98;;;7.40;99.90;;;;;;5059404;28;20120;-45
2022/11/21 00:54:31;;;;;;;29.98;17.92;;;7.40;99.90;;;;;;5060397;28;20036;-45
2022/11/21 00:56:57;;;;;;;29.45;18.63;;;7.30;99.90;;;;;;5052002;28;20037;-45
2022/11/21 00:59:23;;;;;;;25.83;15.55;;;7.20;99.90;;;;;;5035982;28;20049;-45
2022/11/21 01:01:49;;;;;;;28.52;15.82;;;7.20;99.90;;;;;;5055239;28;20043;-45
2022/11/21 01:04:14;;;;;;;33.65;20.00;;;7.20;99.90;;;;;;5065497;28;20075;-45
2022/11/21 01:06:40;;;;;;;31.85;19.73;;;7.40;99.90;;;;;;5085490;28;20474;-45
2022/11/21 01:09:06;;;;;;;33.50;20.73;;;7.30;99.90;;;;;;5081886;28;20451;-45
2022/11/21 01:11:32;;;;;;;31.38;19.52;;;7.30;99.90;;;;;;5092118;28;20068;-44
2022/11/21 01:13:58;;;;;;;32.88;19.38;;;7.30;99.90;;;;;;5076629;28;20024;-45
2022/11/21 01:16:26;;;;;;;33.33;19.33;;;7.30;99.90;;;;;;5081148;28;20041;-45
2022/11/21 01:18:52;;;;;;;31.08;18.58;;;7.30;99.90;;;;;;5077677;28;20079;-45
2022/11/21 01:21:21;;;;;;;32.22;19.70;;;7.40;99.90;;;;;;5066518;28;20042;-44
2022/11/21 01:23:48;;;;;;;33.50;19.70;;;7.40;99.90;;;;;;5079198;28;20031;-45
2022/11/21 01:26:16;;;;;;;31.85;19.70;;;7.30;99.90;;;;;;5082909;28;20115;-44
2022/11/21 01:28:43;;;;;;;31.77;20.15;;;7.30;99.90;;;;;;5025310;28;20046;-45
2022/11/21 01:31:12;;;;;;;32.80;20.17;;;7.20;99.90;;;;;;5053356;28;20048;-45
2022/11/21 01:33:38;;;;;;;35.03;20.33;;;7.30;99.90;;;;;;5061604;28;20136;-44
2022/11/21 01:36:26;;;;;;;35.13;20.85;;;7.30;99.90;;;;;;5055633;28;20045;-44
2022/11/21 01:38:54;;;;;;;31.17;18.73;;;7.30;99.90;;;;;;5058977;28;20547;-45
2022/11/21 01:41:27;;;;;;;34.30;20.92;;;7.30;99.90;;;;;;5061508;28;20024;-45
2022/11/21 01:43:53;;;;;;;35.72;21.10;;;7.40;99.90;;;;;;5056368;28;20041;-45
2022/11/21 01:46:20;;;;;;;22.33;13.20;;;7.30;99.90;;;;;;5055363;28;20485;-45
2022/11/21 01:49:01;;;;;;;33.30;20.75;;;7.30;99.90;;;;;;5060072;28;20041;-45
2022/11/21 01:51:36;;;;;;;33.50;19.58;;;7.40;99.90;;;;;;5058266;28;20063;-44
2022/11/21 01:54:17;;;;;;;39.15;21.00;;;7.40;99.90;;;;;;5065400;28;20476;-46
2022/11/21 01:56:49;;;;;;;36.67;20.80;;;7.40;99.90;;;;;;5038518;28;20148;-44
2022/11/21 01:59:22;;;;;;;27.30;15.63;;;7.50;99.90;;;;;;5058244;28;20107;-49
2022/11/21 02:01:50;;;;;;;32.08;18.23;;;7.50;99.90;;;;;;5090290;28;20036;-44
2022/11/21 02:04:17;;;;;;;34.80;20.27;;;7.40;99.90;;;;;;5085102;28;20490;-45
2022/11/21 02:06:43;;;;;;;34.10;19.73;;;7.40;99.90;;;;;;5088565;28;20107;-45
2022/11/21 02:09:09;;;;;;;31.63;17.98;;;7.50;99.90;;;;;;5069346;28;20791;-45
2022/11/21 02:11:43;;;;;;;31.65;18.95;;;7.40;99.90;;;;;;5086327;28;20497;-45
2022/11/21 02:14:10;;;;;;;32.72;20.15;;;7.50;99.90;;;;;;5081386;28;20544;-44
2022/11/21 02:16:36;;;;;;;32.42;18.27;;;7.50;99.90;;;;;;5087938;28;20357;-44
2022/11/21 02:19:03;;;;;;;34.55;18.73;;;7.50;99.90;;;;;;5078757;28;20036;-45
2022/11/21 02:21:50;;;;;;;35.08;20.15;;;7.40;99.90;;;;;;5092551;28;20024;-45
2022/11/21 02:24:38;;;;;;;31.95;17.95;;;7.50;99.90;;;;;;5058087;28;20043;-44
2022/11/21 02:27:04;;;;;;;30.73;18.90;;;7.40;99.90;;;;;;5079981;28;20032;-47
2022/11/21 02:29:31;;;;;;;29.80;16.70;;;7.30;99.90;;;;;;5085431;28;20035;-44
2022/11/21 02:32:04;;;;;;;33.58;20.75;;;7.30;99.90;;;;;;5085345;28;20024;-45
2022/11/21 02:34:30;;;;;;;32.42;19.33;;;7.30;99.90;;;;;;5060883;28;20036;-44
2022/11/21 02:36:56;;;;;;;35.10;21.13;;;7.40;99.90;;;;;;5086932;28;20116;-46
2022/11/21 02:39:31;;;;;;;30.08;18.92;;;7.40;99.90;;;;;;5084992;28;20039;-45
2022/11/21 02:42:22;;;;;;;23.38;13.88;;;7.30;99.90;;;;;;5083552;28;20017;-44
2022/11/21 02:45:05;;;;;;;31.35;19.00;;;7.30;99.90;;;;;;5080776;28;20032;-46
2022/11/21 02:47:32;;;;;;;37.95;20.98;;;7.30;99.90;;;;;;5090308;28;20040;-45
2022/11/21 02:50:12;;;;;;;33.38;19.65;;;7.40;99.90;;;;;;5077262;28;20032;-45
2022/11/21 02:52:38;;;;;;;32.00;18.73;;;7.50;99.90;;;;;;5096152;27;20028;-44
2022/11/21 02:55:04;;;;;;;37.10;20.77;;;7.40;99.90;;;;;;5081057;28;20352;-45
2022/11/21 02:57:30;;;;;;;26.92;16.58;;;7.30;99.90;;;;;;5086833;28;20475;-45
2022/11/21 02:59:56;;;;;;;34.13;19.83;;;7.30;99.90;;;;;;5078944;28;20032;-44
2022/11/21 03:02:22;;;;;;;33.15;19.60;;;7.20;99.90;;;;;;5100042;27;20214;-45
2022/11/21 03:04:47;;;;;;;35.95;21.08;;;7.30;99.90;;;;;;5083334;28;20052;-45
2022/11/21 03:07:13;;;;;;;33.67;19.02;;;7.40;99.90;;;;;;5082050;28;20138;-44
2022/11/21 03:09:39;;;;;;;38.17;22.77;;;7.40;99.90;;;;;;5086373;28;20105;-44
2022/11/21 03:12:08;;;;;;;38.53;21.77;;;7.40;99.90;;;;;;5082634;28;20035;-45
2022/11/21 03:14:35;;;;;;;42.67;22.50;;;7.40;99.90;;;;;;5082304;28;20029;-44
2022/11/21 03:17:00;;;;;;;40.10;22.42;;;7.40;99.90;;;;;;5065258;28;20396;-44
2022/11/21 03:19:26;;;;;;;38.38;21.13;;;7.40;99.90;;;;;;5086712;28;20028;-45
2022/11/21 03:21:52;;;;;;;36.58;20.98;;;7.30;99.90;;;;;;5067534;28;20086;-44
2022/11/21 03:24:17;;;;;;;31.90;17.55;;;7.30;99.90;;;;;;5082768;28;20031;-44
2022/11/21 03:26:43;;;;;;;32.25;18.30;;;7.30;99.90;;;;;;5080662;28;20115;-44
2022/11/21 03:29:09;;;;;;;37.72;19.85;;;7.10;99.90;;;;;;5078935;28;20095;-45
2022/11/21 03:31:35;;;;;;;36.28;21.30;;;7.10;99.90;;;;;;5083003;28;20050;-44
2022/11/21 03:34:00;;;;;;;33.58;20.58;;;7.10;99.90;;;;;;5084933;28;20086;-44
2022/11/21 03:36:26;;;;;;;26.13;14.70;;;7.20;99.90;;;;;;5081720;28;20082;-45
2022/11/21 03:38:55;;;;;;;25.33;14.27;;;7.00;99.90;;;;;;5101314;27;20395;-44
2022/11/21 03:41:29;;;;;;;33.08;19.38;;;7.00;99.90;;;;;;5079608;28;20036;-45
2022/11/21 03:44:15;;;;;;;37.72;21.45;;;7.10;99.90;;;;;;5064173;28;20455;-44
2022/11/21 03:46:43;;;;;;;36.30;22.90;;;7.10;99.90;;;;;;5081160;28;20056;-44
2022/11/21 03:49:09;;;;;;;36.85;21.48;;;7.20;99.90;;;;;;5077778;28;20029;-44
2022/11/21 03:51:35;;;;;;;37.92;20.67;;;7.00;99.90;;;;;;5084976;28;20047;-45
2022/11/21 03:54:02;;;;;;;34.08;20.20;;;7.10;99.90;;;;;;5077230;28;20047;-45
2022/11/21 03:56:27;;;;;;;27.60;14.48;;;7.00;99.90;;;;;;5064600;28;20041;-46
2022/11/21 03:58:53;;;;;;;32.53;19.95;;;;;;;;;;5099018;27;20066;-45
2022/11/21 04:01:19;;;;;;;39.55;22.90;;;7.10;99.90;;;;;;5080753;28;20046;-45
2022/11/21 04:03:46;;;;;;;37.47;22.60;;;7.30;99.90;;;;;;5061822;28;20131;-44
2022/11/21 04:06:13;;;;;;;39.30;23.88;;;7.10;99.90;;;;;;5084874;28;20070;-45
2022/11/21 04:08:39;;;;;;;35.05;21.23;;;7.10;99.90;;;;;;5080567;28;20040;-44
2022/11/21 04:11:05;;;;;;;37.67;20.70;;;7.90;99.90;;;;;;5082066;28;20124;-45
2022/11/21 04:13:31;;;;;;;30.27;15.75;;;7.20;99.90;;;;;;5085060;28;20035;-45
2022/11/21 04:15:57;;;;;;;34.53;19.77;;;7.00;99.90;;;;;;5067421;28;20037;-46
2022/11/21 04:18:23;;;;;;;35.97;21.88;;;7.00;99.90;;;;;;5099529;27;20032;-44
2022/11/21 04:20:54;;;;;;;30.58;17.88;;;7.00;99.90;;;;;;5080724;28;20051;-44
2022/11/21 04:23:20;;;;;;;34.80;18.67;;;7.20;99.90;;;;;;5081997;28;20107;-44
2022/11/21 04:25:45;;;;;;;35.38;19.27;;;7.20;99.90;;;;;;5081074;28;20119;-44
2022/11/21 04:28:13;;;;;;;40.25;21.98;;;7.10;99.90;;;;;;5082206;28;20024;-44
2022/11/21 04:30:38;;;;;;;39.15;23.73;;;7.10;99.90;;;;;;5081263;28;20048;-44
2022/11/21 04:33:04;;;;;;;35.10;21.73;;;7.10;99.90;;;;;;5081629;28;20036;-45
2022/11/21 04:35:30;;;;;;;35.15;21.52;;;7.10;99.90;;;;;;5086827;28;20100;-45
2022/11/21 04:37:56;;;;;;;36.83;21.52;;;7.10;99.90;;;;;;5081072;28;20032;-44
2022/11/21 04:40:21;;;;;;;32.28;20.08;;;7.10;99.90;;;;;;5079789;28;20067;-44
2022/11/21 04:42:47;;;;;;;37.67;21.95;;;7.10;99.90;;;;;;5067114;28;20032;-44
2022/11/21 04:45:14;;;;;;;34.72;21.02;;;7.20;99.90;;;;;;5083720;28;20038;-45
2022/11/21 04:47:42;;;;;;;35.55;22.05;;;7.20;99.90;;;;;;5087753;28;20055;-44
2022/11/21 04:50:09;;;;;;;35.90;19.85;;;7.10;99.90;;;;;;5040364;28;20132;-44
2022/11/21 04:52:36;;;;;;;32.70;18.08;;;7.10;99.90;;;;;;5047966;28;20051;-44
2022/11/21 04:55:02;;;;;;;38.78;22.63;;;7.00;99.90;;;;;;5053331;28;20076;-44
2022/11/21 04:57:29;;;;;;;33.85;21.25;;;7.10;99.90;;;;;;5060474;28;20072;-44
2022/11/21 04:59:55;;;;;;;31.02;18.02;;;7.00;99.90;;;;;;5059497;28;20060;-45
2022/11/21 05:02:21;;;;;;;34.20;21.55;;;7.00;99.90;;;;;;5053466;28;20027;-45
2022/11/21 05:04:46;;;;;;;30.80;17.65;;;7.00;99.90;;;;;;5067062;28;20054;-45
2022/11/21 05:07:13;;;;;;;29.98;17.63;;;6.90;99.90;;;;;;5058924;28;20043;-45
2022/11/21 05:09:38;;;;;;;35.05;19.92;;;6.90;99.90;;;;;;5056354;28;20037;-45
2022/11/21 05:14:49;;;;;;;34.83;21.17;;;7.10;99.90;;;;;;5075305;28;20051;-44
2022/11/21 05:17:15;;;;;;;37.05;22.35;;;7.10;99.90;;;;;;5046545;28;20053;-45
2022/11/21 05:19:40;;;;;;;38.70;22.50;;;7.20;99.90;;;;;;5062493;28;20078;-45
2022/11/21 05:22:06;;;;;;;34.13;18.88;;;7.30;99.90;;;;;;5066352;28;20371;-45
2022/11/21 05:24:32;;;;;;;34.15;20.02;;;7.10;99.90;;;;;;5099224;28;20127;-44
2022/11/21 05:26:58;;;;;;;36.40;20.73;;;7.20;99.90;;;;;;5082025;28;20437;-45
2022/11/21 05:29:23;;;;;;;38.22;21.95;;;7.20;99.90;;;;;;5103491;28;20081;-45
2022/11/21 05:31:49;;;;;;;39.20;22.17;;;7.20;99.90;;;;;;5089764;28;20487;-45
2022/11/21 05:34:15;;;;;;;34.25;21.20;;;7.10;99.90;;;;;;5090765;28;20067;-44
2022/11/21 05:36:40;;;;;;;37.03;22.55;;;7.20;99.90;;;;;;5037948;28;20073;-45
2022/11/21 05:39:06;;;;;;;39.03;22.58;;;7.20;99.90;;;;;;5086344;28;20124;-44
2022/11/21 05:41:32;;;;;;;38.38;21.83;;;7.10;99.90;;;;;;5083032;28;20023;-45
2022/11/21 05:43:58;;;;;;;29.58;18.05;;;7.20;99.90;;;;;;5089023;28;20016;-45
2022/11/21 05:46:25;;;;;;;26.45;16.38;;;7.00;99.90;;;;;;5085838;28;20396;-44
2022/11/21 05:48:52;;;;;;;36.40;21.05;;;7.00;99.90;;;;;;5085599;28;20028;-45
2022/11/21 05:51:19;;;;;;;35.20;22.20;;;7.10;99.90;;;;;;5089774;28;20085;-44
2022/11/21 05:53:45;;;;;;;34.83;21.25;;;7.20;99.90;;;;;;5086749;28;20042;-44
2022/11/21 05:56:14;;;;;;;39.13;21.58;;;7.30;99.90;;;;;;5086756;28;20045;-44
2022/11/21 05:58:40;;;;;;;39.05;21.80;;;7.40;99.90;;;;;;5088609;28;20032;-46
2022/11/21 06:01:07;;;;;;;38.42;20.35;;;7.30;99.90;;;;;;5081683;28;20024;-44
2022/11/21 06:03:36;;;;;;;34.90;21.55;;;7.40;99.90;;;;;;5087190;28;20082;-44
2022/11/21 06:06:09;;;;;;;35.00;21.05;;;7.20;99.90;;;;;;5084986;28;20471;-45
2022/11/21 06:08:41;;;;;;;30.00;18.98;;;7.10;99.90;;;;;;5081154;28;20094;-45
2022/11/21 06:11:08;;;;;;;34.03;19.45;;;7.10;99.90;;;;;;5082047;28;20117;-45
2022/11/21 06:13:35;;;;;;;34.30;21.98;;;7.20;99.90;;;;;;5081531;28;20024;-44
2022/11/21 06:16:12;;;;;;;31.85;19.90;;;7.30;99.90;;;;;;5082953;28;20038;-44
2022/11/21 06:18:40;;;;;;;35.85;21.05;;;7.40;99.90;;;;;;5084326;28;20024;-44
2022/11/21 06:21:07;;;;;;;33.30;19.70;;;7.40;99.90;;;;;;5081751;28;20055;-44
2022/11/21 06:23:34;;;;;;;34.15;21.58;;;7.30;99.90;;;;;;5085971;28;20476;-49
2022/11/21 06:26:02;;;;;;;35.08;20.92;;;7.50;99.90;;;;;;5082356;28;20031;-42
2022/11/21 06:28:33;;;;;;;35.65;20.20;;;7.50;99.90;;;;;;5028410;28;20133;-50
2022/11/21 06:31:04;;;;;;;32.65;20.50;;;7.70;99.90;;;;;;5064866;28;20064;-45
2022/11/21 06:33:30;;;;;;;39.97;25.33;;;7.60;99.90;;;;;;5061683;28;20032;-47
2022/11/21 06:35:56;;;;;;;57.17;37.22;;;7.60;99.90;;;;;;5031487;28;20041;-47
2022/11/21 06:38:21;;;;;;;36.42;25.42;;;7.70;99.90;;;;;;5065314;28;20117;-47
2022/11/21 06:40:47;;;;;;;34.15;22.13;;;7.80;99.90;;;;;;5013313;28;20040;-47
2022/11/21 06:43:13;;;;;;;35.97;23.73;;;;;;;;;;5064364;28;20036;-48
2022/11/21 06:45:39;;;;;;;36.28;23.85;;;8.00;99.90;;;;;;5066571;28;20029;-47
2022/11/21 06:48:05;;;;;;;37.22;23.65;;;8.00;99.90;;;;;;5064438;28;20049;-47
2022/11/21 06:50:31;;;;;;;32.30;20.95;;;8.00;99.90;;;;;;5048482;28;20116;-47
2022/11/21 06:53:00;;;;;;;33.85;20.83;;;8.00;99.90;;;;;;5046063;28;20116;-47
2022/11/21 06:55:27;;;;;;;33.13;21.38;;;8.00;99.90;;;;;;5068914;28;20025;-50
2022/11/21 06:57:58;;;;;;;34.70;22.73;;;7.90;99.90;;;;;;5067688;28;20047;-50
2022/11/21 07:00:27;;;;;;;33.45;22.10;;;8.00;99.90;;;;;;5086621;28;20039;-51
2022/11/21 07:02:58;;;;;;;34.95;23.20;;;8.10;99.90;;;;;;5090210;28;20039;-53
2022/11/21 07:05:24;;;;;;;36.88;22.90;;;8.20;99.90;;;;;;5094139;28;20031;-50
2022/11/21 07:07:49;;;;;;;34.83;22.42;;;8.20;99.90;;;;;;5090558;28;21245;-49
2022/11/21 07:10:15;;;;;;;29.52;19.25;;;8.20;99.90;;;;;;5103742;27;20089;-45
2022/11/21 07:15:25;;;;;;;30.42;19.17;;;8.20;99.90;;;;;;5074177;28;20089;-48
2022/11/21 07:17:51;;;;;;;32.05;20.52;;;8.20;99.90;;;;;;5069790;28;20044;-47
2022/11/21 07:20:17;;;;;;;27.55;17.55;;;8.30;99.90;;;;;;5071746;28;20033;-46
2022/11/21 07:22:42;;;;;;;28.15;18.00;;;8.20;99.90;;;;;;5052723;28;20047;-46
2022/11/21 07:25:08;;;;;;;25.17;16.25;;;8.20;99.90;;;;;;5071044;28;20040;-46
2022/11/21 07:27:34;;;;;;;28.95;18.88;;;8.00;99.90;;;;;;5083933;28;20067;-47
2022/11/21 07:30:00;;;;;;;27.33;17.27;;;8.20;99.90;;;;;;5033275;28;20558;-46
2022/11/21 07:32:26;;;;;;;27.25;17.85;;;8.10;99.90;;;;;;5091095;28;20042;-46
2022/11/21 07:34:53;;;;;;;28.10;17.85;;;8.20;99.90;;;;;;5085808;28;20985;-47
2022/11/21 07:37:18;;;;;;;27.13;18.40;;;8.30;99.90;;;;;;5087513;28;20034;-47
2022/11/21 07:39:44;;;;;;;30.40;20.08;;;8.30;99.90;;;;;;5083060;28;20020;-47
2022/11/21 07:42:10;;;;;;;29.52;17.35;;;8.30;99.90;;;;;;5082708;28;20024;-46
2022/11/21 07:44:36;;;;;;;31.27;20.50;;;8.30;99.90;;;;;;5070547;28;20047;-46
2022/11/21 07:47:01;;;;;;;27.48;18.48;;;8.40;99.90;;;;;;5088729;28;20468;-47
2022/11/21 07:49:27;;;;;;;25.73;17.08;;;8.30;99.90;;;;;;5083037;28;20034;-46
2022/11/21 07:51:53;;;;;;;24.90;16.40;;;8.40;99.90;;;;;;5079387;28;20488;-46
2022/11/21 07:54:18;;;;;;;24.98;16.70;;;8.40;99.90;;;;;;5079430;28;20056;-47
2022/11/21 07:56:44;;;;;;;24.67;16.17;;;8.40;99.90;;;;;;5085825;28;20036;-47
2022/11/21 07:59:10;;;;;;;21.60;14.63;;;8.50;99.90;;;;;;5077508;28;20039;-46
2022/11/21 08:01:35;;;;;;;26.13;16.05;;;8.40;99.90;;;;;;5079847;28;20031;-46
2022/11/21 08:04:01;;;;;;;29.83;21.52;;;8.30;99.90;;;;;;5085689;28;20705;-47
2022/11/21 08:06:27;;;;;;;26.67;17.90;;;8.30;99.90;;;;;;5081541;28;20028;-47
2022/11/21 08:08:54;;;;;;;26.70;18.23;;;8.30;99.90;;;;;;5084566;28;20035;-47
2022/11/21 08:11:20;;;;;;;23.98;18.45;;;8.30;99.90;;;;;;5066046;28;20496;-47
2022/11/21 08:13:46;;;;;;;27.40;16.85;;;8.50;99.90;;;;;;5087446;28;20115;-47
2022/11/21 08:16:12;;;;;;;25.27;16.33;;;;;;;;;;5084439;28;20028;-46
2022/11/21 08:18:38;;;;;;;28.50;19.02;;;8.50;99.90;;;;;;5080447;28;20044;-47
2022/11/21 08:21:04;;;;;;;26.77;17.67;;;8.60;99.90;;;;;;5086902;28;20085;-45
2022/11/21 08:23:30;;;;;;;21.65;14.23;;;8.80;99.90;;;;;;5058989;28;20041;-47
2022/11/21 08:25:56;;;;;;;26.73;19.00;;;8.80;99.90;;;;;;5082767;28;20055;-46
2022/11/21 08:28:22;;;;;;;24.05;17.88;;;8.80;99.90;;;;;;5084547;28;20068;-46
2022/11/21 08:30:48;;;;;;;20.60;14.57;;;;;;;;;;5078391;28;20490;-47
2022/11/21 08:33:14;;;;;;;24.45;16.45;;;;;;;;;;5077648;28;20386;-47
2022/11/21 08:35:41;;;;;;;22.58;14.02;;;;;;;;;;5085937;28;20035;-46
2022/11/21 08:38:07;;;;;;;17.90;13.30;;;8.90;99.90;;;;;;5077600;28;20505;-47
2022/11/21 08:40:34;;;;;;;19.02;11.88;;;;;;;;;;5076700;28;20029;-46
2022/11/21 08:43:01;;;;;;;22.83;17.35;;;;;;;;;;5081184;28;20043;-46
2022/11/21 08:45:27;;;;;;;22.40;14.90;;;;;;;;;;5078401;28;20029;-47
2022/11/21 08:47:54;;;;;;;20.85;13.93;;;;;;;;;;5079935;28;20084;-46
2022/11/21 08:50:20;;;;;;;22.55;15.45;;;;;;;;;;5085589;28;20035;-47
2022/11/21 08:52:46;;;;;;;20.10;14.57;;;;;;;;;;5086759;28;20040;-47
2022/11/21 08:55:12;;;;;;;23.85;15.18;;;;;;;;;;5080839;28;20027;-47
2022/11/21 08:57:39;;;;;;;17.88;12.43;;;;;;;;;;5103497;27;20063;-47
2022/11/21 09:00:06;;;;;;;22.52;15.15;;;9.50;99.90;;;;;;5086744;28;20032;-47
2022/11/21 09:02:32;;;;;;;23.75;14.60;;;9.30;99.90;;;;;;5053876;28;20559;-47
2022/11/21 09:04:58;;;;;;;14.70;10.00;;;9.40;99.90;;;;;;5058676;28;20131;-47
2022/11/21 09:07:24;;;;;;;18.50;12.75;;;9.40;99.90;;;;;;5051084;28;20495;-46
2022/11/21 09:09:50;;;;;;;20.40;13.98;;;9.40;99.90;;;;;;5064813;28;20039;-47
2022/11/21 09:12:16;;;;;;;14.85;11.20;;;9.50;99.90;;;;;;5056330;28;20397;-46
2022/11/21 09:20:10;;;;;;;15.20;10.70;;;9.20;99.90;;;;;;5019619;28;20178;-47
2022/11/21 09:22:36;;;;;;;18.83;13.82;;;9.20;99.90;;;;;;5060237;28;20748;-46
2022/11/21 09:25:02;;;;;;;19.77;14.20;;;9.10;99.90;;;;;;5060291;28;20210;-47
2022/11/21 09:27:30;;;;;;;31.30;17.63;;;9.00;99.90;;;;;;5058957;28;20035;-47
2022/11/21 09:29:56;;;;;;;35.72;18.98;;;9.10;99.90;;;;;;5062697;28;20028;-47
2022/11/21 09:32:22;;;;;;;26.25;20.08;;;9.00;99.90;;;;;;5025501;28;20040;-47
2022/11/21 09:34:47;;;;;;;19.85;14.48;;;9.10;99.90;;;;;;5055425;28;20036;-46
2022/11/21 09:37:13;;;;;;;18.77;13.23;;;9.20;99.90;;;;;;5064785;28;20667;-47
2022/11/21 09:39:39;;;;;;;18.98;12.93;;;9.30;99.90;;;;;;5068631;28;20480;-46
2022/11/21 09:42:25;;;;;;;18.40;13.27;;;9.20;99.90;;;;;;5078160;28;20033;-47
2022/11/21 09:45:06;;;;;;;20.20;13.80;;;9.30;99.90;;;;;;5077733;28;20037;-46
2022/11/21 09:47:36;;;;;;;19.00;13.77;;;9.20;99.90;;;;;;5068908;28;20075;-47
2022/11/21 09:50:13;;;;;;;19.95;13.18;;;9.30;99.90;;;;;;5074311;28;20064;-47
2022/11/21 09:52:50;;;;;;;16.20;12.15;;;9.40;99.90;;;;;;5080415;28;20059;-47
2022/11/21 09:55:38;;;;;;;17.60;12.82;;;9.40;99.90;;;;;;5074271;28;20063;-47
2022/11/21 09:58:13;;;;;;;18.13;12.95;;;9.50;99.90;;;;;;5074033;28;20040;-47
2022/11/21 10:00:38;;;;;;;16.67;11.25;;;9.40;99.90;;;;;;5080556;28;20034;-47
2022/11/21 10:03:04;;;;;;;19.08;13.57;;;9.40;99.90;;;;;;5078044;28;20534;-47
2022/11/21 10:05:48;;;;;;;17.13;12.98;;;9.30;99.90;;;;;;5085822;28;20494;-47
2022/11/21 10:08:26;;;;;;;16.30;12.25;;;9.30;99.90;;;;;;5079795;28;20040;-46
2022/11/21 10:11:30;;;;;;;18.38;12.55;;;9.30;99.90;;;;;;5073227;28;20063;-47
2022/11/21 10:14:05;;;;;;;17.17;12.07;;;9.20;99.90;;;;;;4993503;28;20082;-47
2022/11/21 10:16:52;;;;;;;19.33;12.98;;;9.30;99.90;;;;;;5080210;28;20040;-46
2022/11/21 10:19:37;;;;;;;20.55;13.05;;;9.30;99.90;;;;;;5078058;28;20031;-46
2022/11/21 10:22:20;;;;;;;21.60;12.60;;;9.40;99.90;;;;;;5079524;28;20028;-47
2022/11/21 10:24:56;;;;;;;18.52;10.85;;;9.30;99.90;;;;;;5072693;28;20037;-47
2022/11/21 10:27:31;;;;;;;22.52;14.80;;;9.30;99.90;;;;;;5089217;28;20115;-47
2022/11/21 10:30:33;;;;;;;22.08;14.38;;;9.40;99.90;;;;;;5081925;28;20036;-47
2022/11/21 10:33:06;;;;;;;25.38;18.42;;;9.40;99.90;;;;;;5083211;28;20105;-49
2022/11/21 10:35:39;;;;;;;19.63;15.13;;;9.30;99.90;;;;;;5085030;28;20044;-48
2022/11/21 10:38:22;;;;;;;16.10;11.40;;;9.40;99.90;;;;;;5085739;28;20051;-48
2022/11/21 10:41:02;;;;;;;18.20;12.88;;;9.30;99.90;;;;;;5088917;28;20025;-48
2022/11/21 10:46:29;;;;;;;20.17;14.10;;;9.80;99.90;;;;;;5040421;28;20095;-49
2022/11/21 10:49:03;;;;;;;18.05;12.73;;;9.80;99.90;;;;;;5046313;28;20040;-49
2022/11/21 10:51:32;;;;;;;23.02;16.77;;;;;;;;;;5045879;28;20068;-49
2022/11/21 10:56:57;;;;;;;13.43;7.75;;;10.00;99.90;;;;;;5037425;28;20135;-49
2022/11/21 10:59:26;;;;;;;14.32;10.10;;;9.80;99.90;;;;;;5032474;28;20544;-49
2022/11/21 11:02:00;;;;;;;13.20;8.80;;;9.90;99.90;;;;;;5036118;28;20033;-49
2022/11/21 11:04:31;;;;;;;13.45;10.07;;;9.90;99.90;;;;;;5037810;28;20112;-50
2022/11/21 11:07:12;;;;;;;16.20;10.48;;;10.00;99.90;;;;;;5042107;28;20499;-50
2022/11/21 11:09:39;;;;;;;14.43;9.18;;;10.00;99.90;;;;;;5038263;28;20135;-44
2022/11/21 11:12:23;;;;;;;17.95;10.75;;;9.90;99.90;;;;;;5024730;28;20052;-50
2022/11/21 11:14:51;;;;;;;17.58;11.73;;;9.70;99.90;;;;;;5013713;28;20037;-49
2022/11/21 11:17:29;;;;;;;11.50;7.95;;;9.60;99.90;;;;;;5042233;28;20049;-49
2022/11/21 11:20:29;;;;;;;11.15;7.65;;;9.70;99.90;;;;;;5043580;28;20072;-49
2022/11/21 11:22:55;;;;;;;12.77;8.98;;;9.80;99.90;;;;;;5050624;28;21109;-49
2022/11/21 11:25:22;;;;;;;12.68;8.98;;;9.80;99.90;;;;;;5063204;28;20549;-49
2022/11/21 11:27:48;;;;;;;10.18;7.82;;;9.70;99.90;;;;;;5070203;28;20037;-50
2022/11/21 11:30:15;;;;;;;11.32;8.13;;;9.60;99.90;;;;;;5063216;28;20198;-49
2022/11/21 11:32:41;;;;;;;10.73;8.68;;;9.60;99.90;;;;;;5063275;28;20087;-50
2022/11/21 11:35:16;;;;;;;12.50;8.15;;;9.50;99.90;;;;;;5064829;28;20098;-49
2022/11/21 11:37:50;;;;;;;12.65;8.80;;;9.60;99.90;;;;;;5069330;28;20101;-49
2022/11/21 11:40:28;;;;;;;13.73;9.52;;;9.50;99.90;;;;;;5064395;28;20024;-49
2022/11/21 11:49:03;;;;;;;13.40;9.32;;;9.60;99.90;;;;;;5080020;28;20042;-50
2022/11/21 11:51:37;;;;;;;17.42;10.68;;;9.60;99.90;;;;;;5083120;28;20024;-49
2022/11/21 11:54:12;;;;;;;24.45;15.30;;;9.70;99.90;;;;;;5075271;28;20634;-50
2022/11/21 11:56:38;;;;;;;12.55;9.07;;;9.60;99.90;;;;;;5070282;28;20036;-49
2022/11/21 11:59:30;;;;;;;12.40;9.00;;;9.70;99.90;;;;;;5081896;28;20043;-51
2022/11/21 12:02:24;;;;;;;14.77;10.60;;;9.70;99.90;;;;;;5012089;28;20188;-49
2022/11/21 12:05:06;;;;;;;10.57;7.72;;;9.70;99.90;;;;;;4973276;28;20045;-50
2022/11/21 12:07:47;;;;;;;14.60;9.60;;;9.80;99.90;;;;;;4972557;28;20039;-48
2022/11/21 12:10:29;;;;;;;15.75;9.73;;;9.80;99.90;;;;;;4972939;28;20043;-48
2022/11/21 12:13:04;;;;;;;10.60;8.43;;;9.80;99.90;;;;;;4955672;28;20046;-49
2022/11/21 12:15:49;;;;;;;16.35;9.20;;;9.70;99.90;;;;;;4971230;28;20062;-49
2022/11/21 12:18:15;;;;;;;14.00;10.27;;;9.60;99.90;;;;;;4958055;28;20773;-50
2022/11/21 12:21:02;;;;;;;13.02;9.52;;;9.70;99.90;;;;;;4973514;28;20038;-55
2022/11/21 12:23:33;;;;;;;11.43;8.98;;;9.80;99.90;;;;;;4974032;28;20066;-50
2022/11/21 12:26:30;;;;;;;12.25;9.35;;;9.80;99.90;;;;;;4970848;28;20039;-52
2022/11/21 12:29:22;;;;;;;12.35;8.60;;;9.70;99.90;;;;;;4970530;28;20038;-49
2022/11/21 12:32:24;;;;;;;10.68;8.25;;;9.70;99.90;;;;;;4969537;28;20051;-48
2022/11/21 12:35:22;;;;;;;;;;;9.60;99.90;;;;;;4938729;28;20043;-48
2022/11/21 12:38:05;;;;;;;14.65;9.80;;;9.40;99.90;;;;;;4913340;29;19919;-49
2022/11/21 12:40:45;;;;;;;12.13;9.23;;;9.40;99.90;;;;;;4949673;29;20039;-49
2022/11/21 12:43:23;;;;;;;15.88;10.77;;;9.50;99.90;;;;;;4988210;28;20050;-50
2022/11/21 12:45:51;;;;;;;13.68;8.55;;;9.40;99.90;;;;;;4971783;28;20038;-49
2022/11/21 12:54:37;;;;;;;8.65;6.32;;;9.50;99.90;;;;;;4989961;28;20394;-49
2022/11/21 12:57:11;;;;;;;11.82;8.20;;;9.30;99.90;;;;;;4970733;28;20061;-49
2022/11/21 13:00:12;;;;;;;10.52;7.53;;;9.20;99.90;;;;;;4988783;28;20504;-49
2022/11/21 13:03:02;;;;;;;11.07;8.15;;;9.30;99.90;;;;;;4988143;28;20113;-48
2022/11/21 13:05:35;;;;;;;8.70;7.05;;;9.30;99.90;;;;;;4985521;28;20038;-48
2022/11/21 13:08:17;;;;;;;12.63;8.27;;;9.30;99.90;;;;;;4993714;28;20385;-48
2022/11/21 13:14:06;;;;;;;12.80;8.10;;;9.40;99.90;;;;;;5007580;28;20045;-49
2022/11/21 13:16:35;;;;;;;13.57;10.15;;;9.40;99.90;;;;;;5028270;28;20037;-48
2022/11/21 13:19:17;;;;;;;11.98;9.38;;;9.40;99.90;;;;;;5027842;28;20128;-48
2022/11/21 13:21:48;;;;;;;13.87;10.10;;;9.40;99.90;;;;;;5027105;28;20508;-48
2022/11/21 13:24:44;;;;;;;14.37;10.07;;;9.50;99.90;;;;;;5028281;28;20413;-48
2022/11/21 13:27:35;;;;;;;15.32;11.68;;;9.60;99.90;;;;;;5027565;28;20286;-48
2022/11/21 13:30:06;;;;;;;14.88;10.88;;;9.70;99.90;;;;;;5025766;28;20033;-48